Latest Weather Observations for Devonport Airport

IDT60801

Issued at 4:31 pm EDT Friday 27 February 2015 (issued every 30 minutes, with the page automatically refreshed every 10 minutes)

About weather observations | Map of weather stations | Latest weather observations for TAS | Other Formats
Station Details ID: 091126 Name: DEVONPORT AIRPORT Lat: -41.17 Lon: 146.43 Height: 8.0 m
Data from the previous 72 hours. | See also: Recent months at Devonport Airport
Date/Time
EDT
Temp
°C
App
Temp
°C
Dew
Point
Rel
Hum
%
Delta-T
°C
Wind Press
QNH
hPa
Press
MSL
hPa
Rain
since 9 am
mm
Dir
 
Spd
km/h
Gust
km/h
Spd
kts
Gust
kts
27/04:30pm 17.7 15.9 8.0 53 5.0 NNW 7 11 4 6 1008.2 1008.2 -
27/04:00pm 17.8 16.8 12.3 70 3.0 NE 9 15 5 8 1008.1 1008.1 -
27/03:30pm 17.5 16.5 12.4 72 2.8 NNE 9 13 5 7 1008.6 1008.6 -
27/03:00pm 16.7 15.5 11.6 72 2.8 NE 9 15 5 8 1008.9 1008.9 -
27/02:30pm 16.9 15.1 12.0 73 2.7 NE 13 19 7 10 1009.2 1009.2 -
27/02:00pm 17.3 14.9 11.3 68 3.3 N 15 19 8 10 1009.3 1009.3 -
27/01:30pm 17.5 15.3 12.0 70 3.0 NNW 15 20 8 11 1009.2 1009.2 -
27/01:00pm 17.9 15.2 11.7 67 3.4 NNW 17 24 9 13 1009.5 1009.5 -
27/12:30pm 17.0 14.1 11.1 68 3.2 NNW 17 24 9 13 1009.9 1009.9 -
27/12:00pm 17.5 13.7 11.1 66 3.5 N 22 28 12 15 1009.8 1009.8 -
27/11:30am 17.9 13.9 10.3 61 4.1 N 22 28 12 15 1009.9 1009.9 -
27/11:00am 17.9 14.4 10.8 63 3.8 N 20 26 11 14 1010.1 1010.1 -
27/10:30am 18.0 14.3 12.7 71 3.0 NE 24 30 13 16 1010.1 1010.1 -
27/10:24am 18.2 14.6 14.3 78 2.2 NE 26 33 14 18 1010.1 1010.1 -
27/10:00am 18.1 15.8 14.6 80 2.0 NE 20 28 11 15 1010.3 1010.3 -
27/09:41am 17.7 16.7 14.6 82 1.8 ENE 13 20 7 11 1010.2 1010.2 -
27/09:30am 17.1 16.2 13.8 81 1.9 E 11 15 6 8 1010.2 1010.2 -
27/09:00am 15.8 14.1 12.5 81 1.8 SE 13 19 7 10 1010.1 1010.1 -
27/08:30am 15.7 13.4 11.9 78 2.1 SSE 15 22 8 12 1009.9 1009.9 -
27/08:11am 15.3 12.8 10.9 75 2.3 SSE 15 19 8 10 1010.0 1010.0 -
27/08:00am 15.0 12.0 10.8 76 2.2 SSE 17 24 9 13 1009.8 1009.8 -
27/07:49am 14.8 12.3 11.0 78 2.0 SSE 15 20 8 11 1010.1 1010.1 -
27/07:48am 14.7 12.2 10.9 78 2.0 SSE 15 20 8 11 1010.1 1010.1 -
27/07:30am 13.9 11.2 10.5 80 1.8 SSE 15 19 8 10 1009.9 1009.9 -
27/07:25am 13.7 11.0 10.5 81 1.7 SSE 15 19 8 10 1009.8 1009.8 -
27/07:00am 13.9 11.2 10.5 80 1.8 SSE 15 20 8 11 1009.6 1009.6 -
27/06:30am 13.6 10.5 10.4 81 1.7 SSE 17 20 9 11 1009.7 1009.7 -
27/05:30am 13.4 10.7 10.4 82 1.6 SSE 15 19 8 10 1009.6 1009.6 -
27/05:14am 13.1 10.0 10.3 83 1.4 SSE 17 20 9 11 1009.6 1009.6 -
27/05:00am 12.8 10.5 10.3 85 1.3 SE 13 15 7 8 1009.6 1009.6 -
27/04:30am 13.1 10.0 10.3 83 1.4 SSE 17 22 9 12 1009.5 1009.5 -
27/04:00am 12.5 9.0 10.2 86 1.2 SSE 19 22 10 12 1009.7 1009.7 -
27/03:45am 12.2 8.7 10.1 87 1.1 SSE 19 24 10 13 1009.5 1009.5 -
27/03:30am 12.2 8.7 10.3 88 1.0 SSE 19 24 10 13 1009.7 1009.7 -
27/03:00am 12.1 9.0 10.3 89 0.9 S 17 20 9 11 1009.8 1009.8 -
27/02:30am 12.5 9.1 10.7 89 0.9 S 19 24 10 13 1009.7 1009.7 -
27/02:00am 12.6 9.1 10.8 89 0.9 S 20 28 11 15 1009.9 1009.9 -
27/01:30am 13.0 9.8 11.1 88 1.0 SSE 19 22 10 12 1010.2 1010.2 -
27/01:00am 13.3 10.5 11.4 88 1.0 S 17 20 9 11 1010.2 1010.2 -
27/12:30am 13.6 12.4 11.7 88 1.0 SSW 9 13 5 7 1010.0 1010.0 -
 
Date/Time
EDT
Temp
°C
App
Temp
°C
Dew
Point
Rel
Hum
%
Delta-T
°C
Wind Press
QNH
hPa
Press
MSL
hPa
Rain
since 9 am
mm
Dir
 
Spd
km/h
Gust
km/h
Spd
kts
Gust
kts
26/11:30pm 14.5 12.4 11.3 81 1.7 S 13 15 7 8 1009.9 1009.9 -
26/11:00pm 15.6 12.8 11.2 75 2.4 S 17 22 9 12 1009.6 1009.6 -
26/10:30pm 16.4 14.4 11.6 73 2.6 SW 13 15 7 8 1009.3 1009.3 -
26/10:00pm 15.7 12.6 11.5 76 2.3 W 19 19 10 10 1009.2 1009.2 -
26/09:30pm 16.0 12.8 11.4 74 2.5 W 19 20 10 11 1009.1 1009.1 -
26/09:00pm 16.6 13.8 11.5 72 2.8 W 17 17 9 9 1008.9 1008.9 -
26/08:30pm 17.9 15.7 12.1 69 3.2 W 15 17 8 9 1008.3 1008.3 -
26/08:00pm 20.0 18.9 13.0 64 4.0 WSW 11 13 6 7 1007.8 1007.8 -
26/07:30pm 21.7 19.5 13.3 59 4.8 WSW 17 20 9 11 1007.5 1007.5 -
26/07:00pm 22.2 20.0 13.3 57 5.1 SW 17 22 9 12 1007.2 1007.2 -
26/06:30pm 22.9 22.1 16.2 66 4.1 WNW 15 22 8 12 1006.9 1006.9 -
26/05:30pm 20.8 19.2 17.4 81 2.1 NW 22 26 12 14 1006.7 1006.7 -
26/05:00pm 20.6 20.5 17.0 80 2.2 NNE 13 20 7 11 1006.8 1006.8 -
26/04:30pm 21.9 20.9 17.5 76 2.7 N 19 24 10 13 1006.9 1006.9 -
26/04:00pm 20.6 19.8 17.0 80 2.2 N 17 20 9 11 1007.2 1007.2 -
26/03:30pm 20.5 19.8 16.5 78 2.4 NNW 15 20 8 11 1007.5 1007.5 -
26/03:00pm 20.7 19.7 17.5 82 2.0 N 19 24 10 13 1007.5 1007.5 -
26/02:30pm 19.9 18.9 16.5 81 2.0 N 17 22 9 12 1007.5 1007.5 -
26/02:00pm 20.2 19.8 17.2 83 1.8 NNW 15 22 8 12 1007.8 1007.8 -
26/01:30pm 19.3 19.3 16.3 83 1.8 N 11 15 6 8 1008.1 1008.1 -
26/01:00pm 18.8 18.7 16.0 84 1.7 NNW 11 17 6 9 1008.3 1008.3 -
26/12:30pm 18.2 18.0 15.6 85 1.5 N 11 15 6 8 1008.5 1008.5 -
26/12:00pm 18.2 18.3 15.6 85 1.5 NNW 9 11 5 6 1008.9 1008.9 -
26/11:30am 18.2 18.7 15.6 85 1.5 WNW 7 11 4 6 1009.0 1009.0 -
26/11:00am 18.2 19.3 15.6 85 1.5 WNW 4 7 2 4 1009.1 1009.1 -
26/10:30am 17.7 18.4 15.7 88 1.2 SSW 6 7 3 4 1009.0 1009.0 -
26/10:00am 16.9 17.5 15.4 91 0.9 S 6 7 3 4 1009.1 1009.1 -
26/09:30am 15.9 15.5 15.1 95 0.5 SSE 11 13 6 7 1009.1 1009.1 -
26/09:00am 15.5 15.0 15.0 97 0.3 SE 11 15 6 8 1009.0 1009.0 -
26/08:30am 14.6 13.9 14.4 99 0.1 S 11 13 6 7 1009.2 1009.2 -
26/08:00am 13.9 13.1 13.9 100 0.0 SSE 11 13 6 7 1009.2 1009.2 -
26/07:30am 13.1 11.6 13.1 100 0.0 S 13 15 7 8 1009.3 1009.3 -
26/07:00am 13.0 11.9 13.0 100 0.0 SSE 11 15 6 8 1009.1 1009.1 -
26/06:30am 13.0 11.1 13.0 100 0.0 S 15 19 8 10 1009.0 1009.0 -
26/06:00am 13.1 11.2 12.9 99 0.1 S 15 19 8 10 1008.8 1008.8 -
26/05:30am 13.4 11.9 13.2 99 0.1 SSE 13 17 7 9 1009.1 1009.1 -
26/05:00am 13.1 11.9 12.9 99 0.1 S 11 15 6 8 1009.6 1009.6 -
26/04:38am 13.0 11.0 12.7 98 0.2 S 15 19 8 10 1009.7 1009.7 -
26/04:30am 12.9 10.5 12.6 98 0.2 SSE 17 20 9 11 1009.8 1009.8 -
26/04:04am 12.7 10.6 12.4 98 0.2 SSE 15 20 8 11 1010.2 1010.2 -
26/04:00am 12.8 10.8 12.6 99 0.1 SSE 15 17 8 9 1010.3 1010.3 -
26/03:30am 13.0 11.0 12.7 98 0.2 S 15 19 8 10 1010.5 1010.5 -
26/03:19am 13.0 11.4 12.8 99 0.1 S 13 17 7 9 1010.7 1010.7 -
26/03:12am 13.0 11.8 12.7 98 0.2 S 11 15 6 8 1010.8 1010.8 -
26/03:00am 13.0 12.1 12.5 97 0.3 S 9 11 5 6 1010.9 1010.9 -
26/02:30am 13.4 12.3 12.0 91 0.8 S 9 11 5 6 1011.2 1011.2 -
26/02:12am 14.2 12.4 11.0 81 1.7 SSE 11 15 6 8 1011.4 1011.4 -
26/02:00am 14.8 12.6 10.8 77 2.1 SSE 13 15 7 8 1011.6 1011.6 -
26/01:30am 14.8 12.0 10.0 73 2.5 SSE 15 19 8 10 1011.7 1011.7 -
26/01:00am 14.7 12.0 10.3 75 2.3 SSE 15 19 8 10 1012.4 1012.4 -
26/12:30am 14.3 11.7 10.7 79 1.9 SSE 15 17 8 9 1012.8 1012.8 -
26/12:00am 13.3 11.5 10.7 84 1.4 S 11 15 6 8 1013.2 1013.2 -
 
Date/Time
EDT
Temp
°C
App
Temp
°C
Dew
Point
Rel
Hum
%
Delta-T
°C
Wind Press
QNH
hPa
Press
MSL
hPa
Rain
since 9 am
mm
Dir
 
Spd
km/h
Gust
km/h
Spd
kts
Gust
kts
25/11:30pm 13.0 11.3 10.0 82 1.5 SE 9 11 5 6 1013.4 1013.4 -
25/11:00pm 14.1 12.5 10.3 78 2.0 SE 9 11 5 6 1014.3 1014.3 -
25/10:30pm 15.2 13.0 10.8 75 2.3 ESE 13 17 7 9 1014.3 1014.3 -
25/10:00pm 15.9 13.1 11.3 74 2.5 E 17 28 9 15 1014.7 1014.7 -
25/09:30pm 17.1 12.8 12.0 72 2.8 NE 26 33 14 18 1014.7 1014.7 -
25/09:00pm 17.3 12.5 11.6 69 3.1 NE 28 35 15 19 1014.6 1014.6 -
25/08:30pm 17.4 12.5 11.4 68 3.3 NE 28 33 15 18 1014.8 1014.8 -
25/08:00pm 17.5 13.0 11.5 68 3.3 NE 26 32 14 17 1015.1 1015.1 -
25/07:30pm 17.8 12.9 9.9 60 4.2 NE 26 33 14 18 1015.5 1015.5 -
25/07:00pm 18.5 12.7 9.3 55 4.8 NE 30 35 16 19 1015.6 1015.6 -
25/06:30pm 19.2 14.1 10.7 58 4.6 NE 28 35 15 19 1016.0 1016.0 -
25/06:00pm 19.2 13.9 9.7 54 5.0 NE 28 33 15 18 1015.8 1015.8 -
25/05:30pm 19.3 14.3 10.8 58 4.6 NE 28 33 15 18 1016.3 1016.3 -
25/05:00pm 19.5 14.5 11.0 58 4.6 NE 28 35 15 19 1016.6 1016.6 -
25/04:30pm 19.9 14.9 10.9 56 4.9 NE 28 35 15 19 1017.0 1017.0 -
25/04:00pm 20.0 14.5 10.4 54 5.2 NE 30 35 16 19 1017.3 1017.3 -
25/03:30pm 19.8 14.7 10.5 55 5.0 NE 28 35 15 19 1018.1 1018.0 -
25/03:00pm 20.9 16.1 11.5 55 5.2 NE 28 33 15 18 1018.6 1018.5 -
25/02:30pm 20.4 16.0 11.6 57 4.9 NNE 26 32 14 17 1019.5 1019.4 -
25/02:00pm 19.6 14.6 11.1 58 4.6 NNE 28 37 15 20 1019.8 1019.7 -
25/01:30pm 20.0 15.1 11.2 57 4.8 NE 28 33 15 18 1020.2 1020.1 -
25/01:00pm 20.8 15.9 11.2 54 5.3 NE 28 35 15 19 1020.4 1020.3 -
25/12:30pm 19.4 13.7 9.9 54 5.1 NE 30 35 16 19 1020.5 1020.4 -
25/12:00pm 19.9 14.7 10.3 54 5.2 NE 28 35 15 19 1020.9 1020.8 -
25/11:30am 19.1 15.0 11.4 61 4.2 NE 24 32 13 17 1021.3 1021.2 -
25/11:00am 18.8 14.4 10.4 58 4.5 NE 24 30 13 16 1021.5 1021.4 -
25/10:30am 18.8 14.9 10.9 60 4.3 ENE 22 28 12 15 1021.7 1021.6 -
25/10:00am 18.0 13.5 10.1 60 4.2 ENE 24 32 13 17 1021.9 1021.8 -
25/09:30am 17.7 13.8 9.6 59 4.3 ENE 20 26 11 14 1022.1 1022.0 -
25/09:00am 17.1 13.8 9.5 61 4.0 E 17 26 9 14 1022.0 1021.9 -
25/08:30am 16.1 13.2 9.5 65 3.4 SE 15 24 8 13 1022.0 1021.9 -
25/08:00am 15.3 12.3 9.4 68 3.0 SE 15 20 8 11 1021.8 1021.7 -
25/07:30am 14.8 11.8 9.4 70 2.8 SSE 15 17 8 9 1021.8 1021.7 -
25/07:00am 14.6 11.6 9.2 70 2.7 SSE 15 20 8 11 1021.6 1021.5 -
25/06:30am 14.4 11.0 9.2 71 2.7 SE 17 20 9 11 1021.4 1021.3 -
25/06:00am 14.7 11.1 9.7 72 2.6 SSE 19 24 10 13 1021.4 1021.3 -
25/05:30am 14.6 11.6 9.4 71 2.7 SSE 15 19 8 10 1021.4 1021.3 -
25/05:00am 14.7 11.3 9.3 70 2.8 SSE 17 19 9 10 1021.4 1021.3 -
25/04:30am 14.8 11.7 9.0 68 3.0 SE 15 19 8 10 1021.4 1021.3 -
25/04:00am 14.9 11.7 8.6 66 3.2 SE 15 20 8 11 1021.5 1021.4 -
25/03:30am 15.0 12.2 8.5 65 3.3 SE 13 17 7 9 1021.6 1021.5 -
25/03:00am 15.0 12.2 8.5 65 3.3 SSE 13 15 7 8 1021.9 1021.8 -
25/02:30am 15.2 12.7 8.4 64 3.4 SSE 11 13 6 7 1022.2 1022.1 -
25/02:00am 15.2 12.4 8.4 64 3.4 SE 13 13 7 7 1022.4 1022.3 -
25/01:30am 15.5 13.0 8.3 62 3.6 ESE 11 15 6 8 1022.7 1022.6 -
25/01:00am 15.5 11.4 8.0 61 3.7 E 19 26 10 14 1022.5 1022.4 -
25/12:30am 15.3 10.7 8.3 63 3.5 ENE 22 33 12 18 1022.5 1022.4 -
25/12:00am 15.3 10.0 8.5 64 3.4 ENE 26 33 14 18 1022.6 1022.5 -
 
Date/Time
EDT
Temp
°C
App
Temp
°C
Dew
Point
Rel
Hum
%
Delta-T
°C
Wind Press
QNH
hPa
Press
MSL
hPa
Rain
since 9 am
mm
Dir
 
Spd
km/h
Gust
km/h
Spd
kts
Gust
kts
24/11:30pm 15.2 9.5 8.2 63 3.5 ENE 28 35 15 19 1022.8 1022.7 -
24/11:00pm 15.5 9.8 8.3 62 3.6 ENE 28 33 15 18 1023.0 1022.9 -
24/10:30pm 15.8 10.1 8.5 62 3.7 ENE 28 37 15 20 1023.1 1023.0 -
24/10:00pm 16.4 10.6 9.6 64 3.5 ENE 30 37 16 20 1023.2 1023.1 -
24/09:30pm 17.3 11.1 10.0 62 3.9 NE 33 39 18 21 1022.9 1022.8 -
24/09:00pm 17.5 12.1 9.4 59 4.2 NE 28 35 15 19 1022.6 1022.5 -
24/08:30pm 17.6 13.5 10.2 62 3.9 NNE 22 32 12 17 1022.4 1022.3 -
24/08:00pm 17.8 14.1 11.4 66 3.5 NNE 22 30 12 16 1022.0 1021.9 -
24/07:30pm 17.9 14.2 11.5 66 3.5 N 22 28 12 15 1021.8 1021.7 -
24/07:00pm 18.0 14.9 11.6 66 3.5 N 19 24 10 13 1021.6 1021.5 -
24/06:30pm 18.2 15.3 12.2 68 3.3 NNW 19 22 10 12 1021.1 1021.0 -
24/06:00pm 19.1 15.8 11.7 62 4.1 N 20 26 11 14 1021.0 1020.9 -
24/05:30pm 19.3 15.9 11.1 59 4.5 N 20 24 11 13 1021.0 1020.9 -
24/05:00pm 19.0 15.0 10.6 58 4.5 NNW 22 26 12 14 1020.9 1020.8 -

Other Formats:

Comma delimited format used in spreadsheet applications
http://www.bom.gov.au/fwo/IDT60801/IDT60801.95960.axf

JavaScript Object Notation format (JSON) in row-major order
http://www.bom.gov.au/fwo/IDT60801/IDT60801.95960.json